Terminal Aerodrome Forecast
Issued by NWS Flagstaff, AZ

Home | Current Version | Previous Version | Text Only | Print | Product List | Glossary On
Versions: 1 2 3 4 5 6 7 8 9 10 11 12 13 14 15 16 17 18
562
FTUS45 KFGZ 240540
TAFINW
TAF
KINW 240540Z 2406/2506 25011KT 6SM -SHRA BKN040
     FM240900 24013G20KT P6SM OVC050
     FM242000 23017G23KT P6SM BKN040 PROB30 2420/2501 6SM -SHRA
      BKN030
     FM250200 23009KT P6SM BKN060=

USA.gov is the U.S. government's official web portal to all federal, state and local government web resources and services.